createdAt,value
2022-07-29T00:01:19.185Z,22.90
2022-07-29T00:03:47.402Z,22.90
2022-07-29T00:06:15.744Z,22.90
2022-07-29T00:08:43.044Z,23.00
2022-07-29T00:11:10.309Z,23.00
2022-07-29T00:13:37.718Z,23.10
2022-07-29T00:16:05.442Z,23.10
2022-07-29T00:18:33.206Z,23.20
2022-07-29T00:21:00.690Z,23.30
2022-07-29T00:23:27.969Z,23.30
2022-07-29T00:25:55.234Z,23.40
2022-07-29T00:28:22.518Z,23.40
2022-07-29T00:30:49.733Z,23.50
2022-07-29T00:33:16.984Z,23.60
2022-07-29T00:35:47.460Z,23.60
2022-07-29T00:38:15.767Z,23.70
2022-07-29T00:40:44.336Z,23.70
2022-07-29T00:43:12.543Z,23.80
2022-07-29T00:45:39.788Z,23.90
2022-07-29T00:48:07.574Z,23.90
2022-07-29T00:50:35.794Z,23.90
2022-07-29T00:53:03.689Z,23.90
2022-07-29T00:55:31.003Z,24.00
2022-07-29T00:57:59.138Z,24.00
2022-07-29T01:00:27.425Z,24.10
2022-07-29T01:02:54.856Z,24.00
2022-07-29T01:05:22.863Z,24.00
2022-07-29T01:07:52.083Z,24.00
2022-07-29T01:10:20.742Z,23.90
2022-07-29T01:12:49.141Z,23.90
2022-07-29T01:15:16.579Z,23.90
2022-07-29T01:17:53.307Z,23.90
2022-07-29T01:20:38.991Z,23.90
2022-07-29T01:23:19.453Z,23.90
2022-07-29T01:25:55.769Z,23.80
2022-07-29T01:28:32.322Z,23.70
2022-07-29T01:31:01.924Z,23.70
2022-07-29T01:33:49.565Z,23.70
2022-07-29T01:36:24.614Z,23.60
2022-07-29T01:39:21.409Z,23.70
2022-07-29T01:41:57.031Z,23.60
2022-07-29T01:44:31.292Z,23.60
2022-07-29T01:47:00.020Z,23.60
2022-07-29T01:49:29.786Z,23.60
2022-07-29T01:52:01.754Z,23.50
2022-07-29T01:54:36.338Z,23.40
2022-07-29T01:57:05.291Z,23.30
2022-07-29T01:59:34.225Z,23.30
2022-07-29T02:02:02.490Z,23.20
2022-07-29T02:04:30.554Z,23.20
2022-07-29T02:07:02.842Z,23.20
2022-07-29T02:09:31.197Z,23.20
2022-07-29T02:11:59.656Z,23.30
2022-07-29T02:14:27.858Z,23.30
2022-07-29T02:16:56.489Z,23.30
2022-07-29T02:19:26.113Z,23.30
2022-07-29T02:21:54.742Z,23.30
2022-07-29T02:24:23.505Z,23.30
2022-07-29T02:26:52.250Z,23.30
2022-07-29T02:29:22.081Z,23.20
2022-07-29T02:31:49.875Z,23.20
2022-07-29T02:34:19.053Z,23.20
2022-07-29T02:36:48.911Z,23.20
2022-07-29T02:39:18.272Z,23.10
2022-07-29T02:41:46.428Z,23.10
2022-07-29T02:44:18.446Z,23.00
2022-07-29T02:46:54.645Z,23.00
2022-07-29T02:49:22.061Z,23.00
2022-07-29T02:51:54.965Z,23.00
2022-07-29T02:54:31.558Z,23.00
2022-07-29T02:57:01.713Z,23.00
2022-07-29T02:59:31.721Z,23.00
2022-07-29T03:01:59.956Z,23.00
2022-07-29T03:04:29.498Z,23.00
2022-07-29T03:06:59.143Z,22.90
2022-07-29T03:09:26.560Z,22.90
2022-07-29T03:11:55.449Z,22.90
2022-07-29T03:14:23.985Z,22.80
2022-07-29T03:16:52.144Z,22.80
2022-07-29T03:19:21.277Z,22.80
2022-07-29T03:21:48.919Z,22.80
2022-07-29T03:24:33.039Z,22.80
2022-07-29T03:27:00.722Z,22.80
2022-07-29T03:29:33.643Z,22.70
2022-07-29T03:32:03.632Z,22.60
2022-07-29T03:34:34.825Z,22.60
2022-07-29T03:37:02.135Z,22.60
2022-07-29T03:39:32.317Z,22.60
2022-07-29T03:42:00.859Z,22.60
2022-07-29T03:44:28.588Z,22.60
2022-07-29T03:46:57.390Z,22.60
2022-07-29T03:49:25.114Z,22.60
2022-07-29T03:51:52.428Z,22.60
2022-07-29T03:54:19.842Z,22.70
2022-07-29T03:56:49.535Z,22.70
2022-07-29T03:59:17.933Z,22.70
2022-07-29T04:01:45.647Z,22.80
2022-07-29T04:04:13.187Z,22.80
2022-07-29T04:06:44.086Z,22.90
2022-07-29T04:09:11.837Z,22.90
2022-07-29T04:12:01.820Z,22.90
2022-07-29T04:14:27.827Z,22.90
2022-07-29T04:16:55.095Z,23.00
2022-07-29T04:19:22.335Z,23.00
2022-07-29T04:21:49.635Z,23.00
2022-07-29T04:24:17.448Z,22.90
2022-07-29T04:26:46.934Z,22.90
2022-07-29T04:29:15.342Z,23.00
2022-07-29T04:31:43.318Z,22.90
2022-07-29T04:34:11.183Z,23.00
2022-07-29T04:36:38.494Z,23.10
2022-07-29T04:39:05.823Z,23.20
2022-07-29T04:41:33.838Z,23.20
2022-07-29T04:44:06.910Z,23.20
2022-07-29T04:46:34.981Z,23.20
2022-07-29T04:49:03.002Z,23.20
2022-07-29T04:52:17.664Z,23.20
2022-07-29T05:57:59.736Z,27.50
2022-07-29T06:04:20.504Z,28.80
2022-07-29T06:10:48.303Z,29.40
2022-07-29T06:14:11.823Z,29.70
2022-07-29T07:28:41.346Z,31.00
2022-07-29T08:20:11.805Z,40.90
2022-07-29T08:22:39.839Z,41.00
2022-07-29T08:25:14.693Z,41.50
2022-07-29T08:27:57.622Z,41.30
2022-07-29T08:30:26.252Z,41.20
2022-07-29T08:32:55.407Z,41.60
2022-07-29T08:35:24.645Z,41.90
2022-07-29T08:37:53.786Z,42.00
2022-07-29T09:05:49.631Z,42.30
2022-07-29T09:08:21.374Z,42.70
2022-07-29T09:10:49.393Z,42.60
2022-07-29T09:13:16.991Z,42.20
2022-07-29T09:15:45.421Z,42.70
2022-07-29T09:18:30.294Z,42.80
2022-07-29T09:21:18.456Z,42.40
2022-07-29T09:24:18.283Z,42.60
2022-07-29T09:27:53.327Z,42.70
2022-07-29T09:52:18.422Z,42.00
2022-07-29T09:58:23.563Z,41.70
2022-07-29T10:00:53.449Z,41.20
2022-07-29T10:03:25.304Z,41.80
2022-07-29T10:06:14.546Z,42.20
2022-07-29T10:08:43.314Z,42.10
2022-07-29T10:11:15.465Z,41.80
2022-07-29T10:13:44.484Z,41.80
2022-07-29T10:16:14.004Z,41.90
2022-07-29T10:18:45.796Z,41.80
2022-07-29T10:21:34.938Z,42.10
2022-07-29T10:24:02.188Z,42.20
2022-07-29T10:26:31.379Z,42.60
2022-07-29T10:28:59.190Z,42.50
2022-07-29T10:31:41.134Z,42.00
2022-07-29T10:34:45.122Z,41.70
2022-07-29T10:40:55.014Z,41.40
2022-07-29T10:43:33.866Z,41.20
2022-07-29T10:46:02.696Z,41.30
2022-07-29T10:48:30.586Z,40.90
2022-07-29T10:51:03.987Z,40.60
2022-07-29T10:53:53.908Z,40.70
2022-07-29T10:56:29.452Z,40.60
2022-07-29T10:59:22.932Z,40.10
2022-07-29T11:01:53.432Z,39.80
2022-07-29T11:05:06.434Z,39.90
2022-07-29T11:07:45.824Z,39.40
2022-07-29T11:10:14.080Z,39.30
2022-07-29T11:12:44.579Z,38.50
2022-07-29T11:15:18.222Z,36.90
2022-07-29T11:17:54.789Z,35.80
2022-07-29T11:20:42.905Z,35.10
2022-07-29T11:23:36.669Z,34.70
2022-07-29T11:26:13.609Z,34.40
2022-07-29T11:28:52.690Z,34.30
2022-07-29T11:31:42.802Z,34.10
2022-07-29T11:37:10.772Z,33.80
2022-07-29T11:40:01.795Z,33.80
2022-07-29T11:45:41.701Z,33.60
2022-07-29T11:48:28.499Z,33.80
2022-07-29T11:50:58.599Z,34.10
2022-07-29T11:56:16.431Z,33.90
2022-07-29T11:58:45.749Z,33.50
2022-07-29T12:01:18.469Z,33.50
2022-07-29T12:03:46.353Z,33.40
2022-07-29T12:06:17.411Z,33.30
2022-07-29T12:07:02.231Z,34.00
2022-07-29T12:07:03.404Z,33.70
2022-07-29T12:08:47.634Z,33.40
2022-07-29T12:11:20.857Z,33.50
2022-07-29T12:13:52.633Z,33.70
2022-07-29T12:16:26.134Z,33.60
2022-07-29T12:19:03.813Z,33.50
2022-07-29T12:21:53.719Z,33.50
2022-07-29T12:24:26.711Z,33.50
2022-07-29T12:26:55.485Z,33.50
2022-07-29T12:29:33.744Z,33.60
2022-07-29T12:32:14.675Z,33.70
2022-07-29T12:34:47.639Z,33.60
2022-07-29T12:37:15.238Z,33.50
2022-07-29T12:39:42.960Z,33.40
2022-07-29T12:42:15.069Z,33.40
2022-07-29T12:44:51.375Z,33.40
2022-07-29T12:47:19.748Z,33.50
2022-07-29T12:49:48.355Z,33.30
2022-07-29T12:52:33.784Z,33.40
2022-07-29T12:55:01.901Z,33.50
2022-07-29T12:57:30.806Z,33.50
2022-07-29T13:00:13.623Z,33.30
2022-07-29T13:02:43.431Z,33.10
2022-07-29T13:05:13.719Z,33.20
2022-07-29T13:07:54.903Z,33.30
2022-07-29T13:10:25.096Z,33.40
2022-07-29T13:13:12.651Z,33.30
2022-07-29T13:15:48.107Z,33.30
2022-07-29T13:18:32.334Z,33.30
2022-07-29T13:21:15.846Z,33.20
2022-07-29T13:23:43.982Z,33.10
2022-07-29T13:26:17.275Z,33.20
2022-07-29T13:28:44.668Z,33.20
2022-07-29T13:31:12.658Z,33.30
2022-07-29T13:33:41.551Z,33.40
2022-07-29T13:36:15.494Z,33.60
2022-07-29T13:38:43.025Z,33.60
2022-07-29T13:41:10.558Z,33.60
2022-07-29T13:43:38.061Z,33.60
2022-07-29T13:46:05.588Z,33.70
2022-07-29T13:48:33.008Z,33.70
2022-07-29T13:51:00.536Z,33.70
2022-07-29T13:53:28.868Z,33.70
2022-07-29T13:55:56.469Z,33.50
2022-07-29T13:58:24.107Z,33.60
2022-07-29T14:00:51.689Z,33.60
2022-07-29T14:03:19.248Z,33.60
2022-07-29T14:05:46.679Z,33.60
2022-07-29T14:08:14.146Z,33.50
2022-07-29T14:10:41.591Z,33.40
2022-07-29T14:13:25.030Z,33.30
2022-07-29T14:15:54.224Z,33.30
2022-07-29T14:18:21.732Z,33.40
2022-07-29T14:20:49.243Z,33.30
2022-07-29T14:23:16.734Z,33.40
2022-07-29T14:25:47.698Z,33.40
2022-07-29T14:28:16.992Z,33.30
2022-07-29T14:30:44.508Z,33.30
2022-07-29T14:33:11.971Z,33.20
2022-07-29T14:35:39.524Z,33.20
2022-07-29T14:38:06.953Z,33.20
2022-07-29T14:40:34.591Z,33.20
2022-07-29T14:43:02.555Z,33.10
2022-07-29T14:45:30.332Z,33.00
2022-07-29T14:47:58.353Z,32.80
2022-07-29T14:50:31.451Z,32.70
2022-07-29T14:53:00.881Z,32.70
2022-07-29T14:55:28.448Z,32.60
2022-07-29T14:58:05.783Z,32.50
2022-07-29T15:00:35.421Z,32.40
2022-07-29T15:03:03.287Z,32.30
2022-07-29T15:05:34.030Z,32.20
2022-07-29T15:08:01.501Z,32.10
2022-07-29T15:10:29.091Z,32.00
2022-07-29T15:12:57.769Z,32.00
2022-07-29T15:15:25.789Z,31.90
2022-07-29T15:17:53.259Z,31.80
2022-07-29T15:20:20.924Z,31.80
2022-07-29T15:22:48.339Z,31.70
2022-07-29T15:25:15.786Z,31.60
2022-07-29T15:27:43.208Z,31.50
2022-07-29T15:30:32.606Z,31.50
2022-07-29T15:33:01.386Z,31.50
2022-07-29T15:35:28.870Z,31.50
2022-07-29T15:37:56.334Z,31.50
2022-07-29T15:40:23.782Z,31.40
2022-07-29T15:42:51.221Z,31.40
2022-07-29T15:45:18.711Z,31.30
2022-07-29T15:47:46.127Z,31.20
2022-07-29T15:50:16.725Z,31.20
2022-07-29T15:52:44.216Z,31.10
2022-07-29T15:55:13.378Z,31.10
2022-07-29T15:57:40.883Z,31.00
2022-07-29T16:00:09.078Z,30.90
2022-07-29T16:02:36.534Z,30.90
2022-07-29T16:05:04.548Z,30.80
2022-07-29T16:07:37.784Z,30.60
2022-07-29T16:10:07.881Z,30.50
2022-07-29T16:12:35.438Z,30.40
2022-07-29T16:15:07.544Z,30.30
2022-07-29T16:17:37.912Z,30.10
2022-07-29T16:20:06.573Z,30.00
2022-07-29T16:22:33.992Z,29.90
2022-07-29T16:25:01.730Z,29.70
2022-07-29T16:27:35.369Z,29.70
2022-07-29T16:30:09.597Z,29.60
2022-07-29T16:32:37.632Z,29.50
2022-07-29T16:35:05.687Z,29.40
2022-07-29T16:37:37.187Z,29.20
2022-07-29T16:40:06.304Z,29.20
2022-07-29T16:42:46.597Z,29.00
2022-07-29T16:45:16.277Z,29.00
2022-07-29T16:47:45.490Z,28.80
2022-07-29T16:50:13.100Z,28.80
2022-07-29T16:52:40.525Z,28.70
2022-07-29T16:55:08.216Z,28.50
2022-07-29T16:57:35.623Z,28.50
2022-07-29T17:00:04.323Z,28.40
2022-07-29T17:02:31.714Z,28.40
2022-07-29T17:04:59.117Z,28.40
2022-07-29T17:07:26.633Z,28.30
2022-07-29T17:09:56.000Z,28.30
2022-07-29T17:12:25.343Z,28.30
2022-07-29T17:14:52.744Z,28.30
2022-07-29T17:17:20.891Z,28.30
2022-07-29T17:20:09.046Z,28.20
2022-07-29T17:22:37.351Z,28.20
2022-07-29T17:25:05.261Z,28.20
2022-07-29T17:27:32.711Z,28.10
2022-07-29T17:30:00.306Z,28.10
2022-07-29T17:32:27.730Z,28.10
2022-07-29T17:34:55.167Z,28.10
2022-07-29T17:37:22.618Z,28.00
2022-07-29T17:39:50.848Z,27.90
2022-07-29T17:42:18.255Z,27.80
2022-07-29T17:44:45.703Z,27.70
2022-07-29T17:47:15.892Z,27.60
2022-07-29T17:49:45.540Z,27.50
2022-07-29T17:52:13.150Z,27.40
2022-07-29T17:54:40.550Z,27.30
2022-07-29T17:57:09.636Z,27.30
2022-07-29T17:59:38.149Z,27.20
2022-07-29T18:02:05.677Z,27.10
2022-07-29T18:04:33.802Z,27.10
2022-07-29T18:07:01.701Z,27.10
2022-07-29T18:09:29.950Z,27.10
2022-07-29T18:11:57.362Z,27.10
2022-07-29T18:14:24.785Z,27.10
2022-07-29T18:16:52.324Z,27.10
2022-07-29T18:19:20.533Z,27.10
2022-07-29T18:21:54.040Z,27.10
2022-07-29T18:24:25.607Z,27.20
2022-07-29T18:26:53.938Z,27.20
2022-07-29T18:29:21.534Z,27.20
2022-07-29T18:31:49.065Z,27.20
2022-07-29T18:34:17.078Z,27.20
2022-07-29T18:36:45.917Z,27.30
2022-07-29T18:39:20.842Z,27.20
2022-07-29T18:41:51.920Z,27.20
2022-07-29T18:44:22.465Z,27.10
2022-07-29T18:46:51.858Z,27.10
2022-07-29T18:49:19.788Z,27.00
2022-07-29T18:51:47.650Z,26.90
2022-07-29T18:54:15.525Z,26.90
2022-07-29T18:56:44.095Z,26.90
2022-07-29T18:59:11.576Z,26.90
2022-07-29T19:01:39.068Z,26.80
2022-07-29T19:04:06.631Z,26.80
2022-07-29T19:06:34.245Z,26.80
2022-07-29T19:09:01.737Z,26.80
2022-07-29T19:11:29.233Z,26.60
2022-07-29T19:13:56.703Z,26.40
2022-07-29T19:16:27.030Z,25.80
2022-07-29T19:18:54.772Z,25.50
2022-07-29T19:21:24.928Z,25.00
2022-07-29T19:24:06.269Z,24.60
2022-07-29T19:26:38.275Z,24.10
2022-07-29T19:29:06.146Z,23.90
2022-07-29T19:31:33.651Z,23.70
2022-07-29T19:34:01.119Z,23.50
2022-07-29T19:36:28.901Z,23.50
2022-07-29T19:38:56.387Z,23.60
2022-07-29T19:41:23.809Z,23.70
2022-07-29T19:43:53.032Z,23.80
2022-07-29T19:46:21.738Z,23.80
2022-07-29T19:48:49.647Z,23.90
2022-07-29T19:51:17.322Z,24.00
2022-07-29T19:53:44.850Z,24.00
2022-07-29T19:56:12.493Z,24.00
2022-07-29T19:58:41.282Z,24.10
2022-07-29T20:01:10.270Z,24.20
2022-07-29T20:03:41.242Z,24.30
2022-07-29T20:06:08.665Z,24.40
2022-07-29T20:08:36.626Z,24.40
2022-07-29T20:11:04.184Z,24.40
2022-07-29T20:13:33.601Z,24.50
2022-07-29T20:16:02.077Z,24.50
2022-07-29T20:18:29.580Z,24.50
2022-07-29T20:20:57.657Z,24.60
2022-07-29T20:23:25.229Z,24.70
2022-07-29T20:25:52.757Z,24.60
2022-07-29T20:28:22.603Z,24.70
2022-07-29T20:30:50.114Z,24.60
2022-07-29T20:33:17.607Z,24.60
2022-07-29T20:35:45.087Z,24.50
2022-07-29T20:38:16.388Z,24.40
2022-07-29T20:40:45.814Z,24.40
2022-07-29T20:43:13.415Z,24.40
2022-07-29T20:45:40.853Z,24.40
2022-07-29T20:48:08.602Z,24.40
2022-07-29T20:50:36.208Z,24.40
2022-07-29T20:53:03.931Z,24.40
2022-07-29T20:55:32.155Z,24.50
2022-07-29T20:57:59.642Z,24.50
2022-07-29T21:00:28.485Z,24.40
2022-07-29T21:02:55.958Z,24.30
2022-07-29T21:05:24.242Z,24.30
2022-07-29T21:07:55.322Z,24.30
2022-07-29T21:10:25.731Z,24.30
2022-07-29T21:12:53.162Z,24.30
2022-07-29T21:15:21.696Z,24.30
2022-07-29T21:17:49.135Z,24.40
2022-07-29T21:20:18.392Z,24.40
2022-07-29T21:22:45.877Z,24.30
2022-07-29T21:25:13.390Z,24.30
2022-07-29T21:27:59.158Z,24.30
2022-07-29T21:30:26.626Z,24.20
2022-07-29T21:32:54.094Z,24.10
2022-07-29T21:36:01.977Z,24.00
2022-07-29T21:38:09.071Z,24.00
2022-07-29T21:40:36.511Z,23.90
2022-07-29T21:43:03.919Z,23.80
2022-07-29T21:45:31.322Z,23.70
2022-07-29T21:47:58.721Z,23.70
2022-07-29T21:50:26.185Z,23.60
2022-07-29T21:52:53.729Z,23.50
2022-07-29T21:55:21.286Z,23.50
2022-07-29T21:57:51.837Z,23.50
2022-07-29T22:00:19.380Z,23.40
2022-07-29T22:02:47.659Z,23.20
2022-07-29T22:05:15.192Z,23.20
2022-07-29T22:07:54.244Z,23.10
2022-07-29T22:10:28.587Z,23.10
2022-07-29T22:12:58.050Z,23.10
2022-07-29T22:15:27.186Z,23.00
2022-07-29T22:17:54.737Z,23.00
2022-07-29T22:20:22.240Z,23.00
2022-07-29T22:22:49.704Z,23.10
2022-07-29T22:25:17.735Z,23.00
2022-07-29T22:27:45.428Z,23.10
2022-07-29T22:30:13.671Z,23.10
2022-07-29T22:32:41.265Z,23.20
2022-07-29T22:35:09.081Z,23.20
2022-07-29T22:37:36.875Z,23.20
2022-07-29T22:40:05.554Z,23.30
2022-07-29T22:42:33.902Z,23.20
2022-07-29T22:45:01.536Z,23.20
2022-07-29T22:47:45.927Z,23.20
2022-07-29T22:50:15.901Z,23.30
2022-07-29T22:52:43.396Z,23.40
2022-07-29T22:55:10.989Z,23.40
2022-07-29T22:57:38.464Z,23.40
2022-07-29T23:00:06.941Z,23.40
2022-07-29T23:02:36.221Z,23.30
2022-07-29T23:05:04.375Z,23.30
2022-07-29T23:07:34.274Z,23.30
2022-07-29T23:10:01.982Z,23.40
2022-07-29T23:12:29.367Z,23.30
2022-07-29T23:14:56.776Z,23.30
2022-07-29T23:17:24.351Z,23.40
2022-07-29T23:19:51.810Z,23.40
2022-07-29T23:22:19.204Z,23.40
2022-07-29T23:24:46.612Z,23.40
2022-07-29T23:27:14.039Z,23.30
2022-07-29T23:29:41.445Z,23.30
2022-07-29T23:32:08.842Z,23.30
2022-07-29T23:34:36.249Z,23.20
2022-07-29T23:37:03.941Z,23.20
2022-07-29T23:39:31.583Z,23.10
2022-07-29T23:41:59.037Z,23.10
2022-07-29T23:44:26.417Z,23.10
2022-07-29T23:46:53.931Z,23.00
2022-07-29T23:49:21.462Z,23.00
2022-07-29T23:51:48.909Z,23.00
2022-07-29T23:54:16.350Z,23.00
2022-07-29T23:56:43.747Z,22.90
2022-07-29T23:59:13.985Z,22.90
